sensor_id;sensor_type;location;lat;lon;timestamp;P1;durP1;ratioP1;P2;durP2;ratioP2
71174;SDS011;58876;51.994;4.472;2022-10-12T00:00:52;609.75;;;609.75;;
71174;SDS011;58876;51.994;4.472;2022-10-12T00:03:17;680.25;;;680.25;;
71174;SDS011;58876;51.994;4.472;2022-10-12T00:05:43;674.39;;;674.39;;
71174;SDS011;58876;51.994;4.472;2022-10-12T00:08:10;645.50;;;645.50;;
71174;SDS011;58876;51.994;4.472;2022-10-12T00:10:40;720.94;;;720.94;;
71174;SDS011;58876;51.994;4.472;2022-10-12T00:13:07;748.75;;;748.75;;
71174;SDS011;58876;51.994;4.472;2022-10-12T00:15:37;873.64;;;873.64;;
71174;SDS011;58876;51.994;4.472;2022-10-12T00:18:04;1148.34;;;1148.34;;
71174;SDS011;58876;51.994;4.472;2022-10-12T00:20:30;1358.31;;;1358.31;;
71174;SDS011;58876;51.994;4.472;2022-10-12T00:22:55;1133.55;;;1133.55;;
71174;SDS011;58876;51.994;4.472;2022-10-12T00:25:20;1444.75;;;1444.75;;
71174;SDS011;58876;51.994;4.472;2022-10-12T00:27:46;1214.10;;;1214.10;;
71174;SDS011;58876;51.994;4.472;2022-10-12T00:30:11;1510.53;;;1510.53;;
71174;SDS011;58876;51.994;4.472;2022-10-12T00:32:37;1484.47;;;1484.47;;
71174;SDS011;58876;51.994;4.472;2022-10-12T00:35:03;1088.02;;;1088.02;;
71174;SDS011;58876;51.994;4.472;2022-10-12T00:37:28;900.51;;;900.51;;
71174;SDS011;58876;51.994;4.472;2022-10-12T00:39:54;1083.47;;;1083.47;;
71174;SDS011;58876;51.994;4.472;2022-10-12T00:42:19;1734.35;;;1734.35;;
71174;SDS011;58876;51.994;4.472;2022-10-12T00:44:46;1785.00;;;1785.00;;
71174;SDS011;58876;51.994;4.472;2022-10-12T00:49:51;1167.13;;;1167.13;;
71174;SDS011;58876;51.994;4.472;2022-10-12T00:52:42;1450.62;;;1450.62;;
71174;SDS011;58876;51.994;4.472;2022-10-12T00:55:27;1628.88;;;1628.88;;
71174;SDS011;58876;51.994;4.472;2022-10-12T00:57:59;1547.03;;;1547.03;;
71174;SDS011;58876;51.994;4.472;2022-10-12T01:00:25;1655.52;;;1655.52;;
71174;SDS011;58876;51.994;4.472;2022-10-12T01:02:51;2071.29;;;2071.29;;
71174;SDS011;58876;51.994;4.472;2022-10-12T01:05:19;1957.09;;;1957.09;;
71174;SDS011;58876;51.994;4.472;2022-10-12T01:07:46;1956.44;;;1956.44;;
71174;SDS011;58876;51.994;4.472;2022-10-12T01:10:12;1963.22;;;1963.22;;
71174;SDS011;58876;51.994;4.472;2022-10-12T01:12:37;2150.56;;;2150.56;;
71174;SDS011;58876;51.994;4.472;2022-10-12T01:15:07;2153.68;;;2153.68;;
71174;SDS011;58876;51.994;4.472;2022-10-12T01:17:52;2448.61;;;2448.61;;
71174;SDS011;58876;51.994;4.472;2022-10-12T01:23:45;2365.69;;;2365.69;;
71174;SDS011;58876;51.994;4.472;2022-10-12T01:29:12;1430.09;;;1430.09;;
71174;SDS011;58876;51.994;4.472;2022-10-12T01:32:42;1191.47;;;1191.47;;
71174;SDS011;58876;51.994;4.472;2022-10-12T01:37:20;217.92;;;217.92;;
71174;SDS011;58876;51.994;4.472;2022-10-12T01:39:55;1215.53;;;1215.53;;
71174;SDS011;58876;51.994;4.472;2022-10-12T01:42:32;2019.83;;;2019.83;;
71174;SDS011;58876;51.994;4.472;2022-10-12T01:45:04;2207.45;;;2207.45;;
71174;SDS011;58876;51.994;4.472;2022-10-12T01:47:32;2179.66;;;2179.66;;
71174;SDS011;58876;51.994;4.472;2022-10-12T01:49:59;2264.75;;;2264.75;;
71174;SDS011;58876;51.994;4.472;2022-10-12T01:52:29;2582.38;;;2582.38;;
71174;SDS011;58876;51.994;4.472;2022-10-12T01:55:07;2306.65;;;2306.65;;
71174;SDS011;58876;51.994;4.472;2022-10-12T02:00:21;2716.75;;;2716.75;;
71174;SDS011;58876;51.994;4.472;2022-10-12T02:03:23;2806.48;;;2806.48;;
71174;SDS011;58876;51.994;4.472;2022-10-12T02:05:59;2752.58;;;2752.58;;
71174;SDS011;58876;51.994;4.472;2022-10-12T02:11:14;2791.74;;;2791.74;;
71174;SDS011;58876;51.994;4.472;2022-10-12T02:16:33;1652.26;;;1652.26;;
71174;SDS011;58876;51.994;4.472;2022-10-12T02:19:05;1178.74;;;1178.74;;
71174;SDS011;58876;51.994;4.472;2022-10-12T02:21:35;1893.81;;;1893.81;;
71174;SDS011;58876;51.994;4.472;2022-10-12T02:24:05;2492.33;;;2492.33;;
71174;SDS011;58876;51.994;4.472;2022-10-12T02:26:34;2346.12;;;2346.12;;
71174;SDS011;58876;51.994;4.472;2022-10-12T02:29:07;2269.35;;;2269.35;;
71174;SDS011;58876;51.994;4.472;2022-10-12T02:34:27;2104.90;;;2104.90;;
71174;SDS011;58876;51.994;4.472;2022-10-12T02:40:06;1980.08;;;1980.08;;
71174;SDS011;58876;51.994;4.472;2022-10-12T02:42:42;1837.31;;;1837.31;;
71174;SDS011;58876;51.994;4.472;2022-10-12T02:45:17;2023.91;;;2023.91;;
71174;SDS011;58876;51.994;4.472;2022-10-12T02:47:45;2633.93;;;2633.93;;
71174;SDS011;58876;51.994;4.472;2022-10-12T02:50:21;2108.71;;;2108.71;;
71174;SDS011;58876;51.994;4.472;2022-10-12T02:52:50;2047.16;;;2047.16;;
71174;SDS011;58876;51.994;4.472;2022-10-12T02:55:17;1316.79;;;1316.79;;
71174;SDS011;58876;51.994;4.472;2022-10-12T02:57:43;1671.10;;;1671.10;;
71174;SDS011;58876;51.994;4.472;2022-10-12T03:00:08;1486.87;;;1486.87;;
71174;SDS011;58876;51.994;4.472;2022-10-12T03:02:34;1105.24;;;1105.24;;
71174;SDS011;58876;51.994;4.472;2022-10-12T03:05:00;469.65;;;469.65;;
71174;SDS011;58876;51.994;4.472;2022-10-12T03:07:26;1186.96;;;1186.96;;
71174;SDS011;58876;51.994;4.472;2022-10-12T03:09:52;1692.84;;;1692.84;;
71174;SDS011;58876;51.994;4.472;2022-10-12T03:12:18;1161.68;;;1161.68;;
71174;SDS011;58876;51.994;4.472;2022-10-12T03:14:43;1752.21;;;1752.21;;
71174;SDS011;58876;51.994;4.472;2022-10-12T03:17:08;1919.99;;;1919.99;;
71174;SDS011;58876;51.994;4.472;2022-10-12T03:19:34;1621.75;;;1621.75;;
71174;SDS011;58876;51.994;4.472;2022-10-12T03:21:59;1500.51;;;1500.51;;
71174;SDS011;58876;51.994;4.472;2022-10-12T03:24:25;2109.41;;;2109.41;;
71174;SDS011;58876;51.994;4.472;2022-10-12T03:26:51;1296.14;;;1296.14;;
71174;SDS011;58876;51.994;4.472;2022-10-12T03:29:16;1717.89;;;1717.89;;
71174;SDS011;58876;51.994;4.472;2022-10-12T03:31:42;1654.89;;;1654.89;;
71174;SDS011;58876;51.994;4.472;2022-10-12T03:34:07;1527.10;;;1527.10;;
71174;SDS011;58876;51.994;4.472;2022-10-12T03:36:32;1326.48;;;1326.48;;
71174;SDS011;58876;51.994;4.472;2022-10-12T03:38:58;946.57;;;946.57;;
71174;SDS011;58876;51.994;4.472;2022-10-12T03:41:23;1635.40;;;1635.40;;
71174;SDS011;58876;51.994;4.472;2022-10-12T03:43:49;1585.18;;;1585.18;;
71174;SDS011;58876;51.994;4.472;2022-10-12T03:46:14;1882.28;;;1882.28;;
71174;SDS011;58876;51.994;4.472;2022-10-12T03:48:40;1682.98;;;1682.98;;
71174;SDS011;58876;51.994;4.472;2022-10-12T03:51:05;1961.35;;;1961.35;;
71174;SDS011;58876;51.994;4.472;2022-10-12T03:53:31;1864.16;;;1864.16;;
71174;SDS011;58876;51.994;4.472;2022-10-12T03:55:56;2042.26;;;2042.26;;
71174;SDS011;58876;51.994;4.472;2022-10-12T03:58:22;2162.11;;;2162.11;;
71174;SDS011;58876;51.994;4.472;2022-10-12T04:00:54;1983.62;;;1983.62;;
71174;SDS011;58876;51.994;4.472;2022-10-12T04:03:19;2564.42;;;2564.42;;
71174;SDS011;58876;51.994;4.472;2022-10-12T04:05:55;2583.26;;;2583.26;;
71174;SDS011;58876;51.994;4.472;2022-10-12T04:08:22;2605.91;;;2605.91;;
71174;SDS011;58876;51.994;4.472;2022-10-12T04:10:50;2773.06;;;2773.06;;
71174;SDS011;58876;51.994;4.472;2022-10-12T04:13:16;2602.25;;;2602.25;;
71174;SDS011;58876;51.994;4.472;2022-10-12T04:15:43;1957.25;;;1957.25;;
71174;SDS011;58876;51.994;4.472;2022-10-12T04:18:08;2689.49;;;2689.49;;
71174;SDS011;58876;51.994;4.472;2022-10-12T04:20:34;2298.58;;;2298.58;;
71174;SDS011;58876;51.994;4.472;2022-10-12T04:23:00;1980.07;;;1980.07;;
71174;SDS011;58876;51.994;4.472;2022-10-12T04:25:25;2789.29;;;2789.29;;
71174;SDS011;58876;51.994;4.472;2022-10-12T04:27:50;2629.82;;;2629.82;;
71174;SDS011;58876;51.994;4.472;2022-10-12T04:30:17;2255.39;;;2255.39;;
71174;SDS011;58876;51.994;4.472;2022-10-12T04:32:43;2035.07;;;2035.07;;
71174;SDS011;58876;51.994;4.472;2022-10-12T04:35:08;1836.93;;;1836.93;;
71174;SDS011;58876;51.994;4.472;2022-10-12T04:37:33;2082.89;;;2082.89;;
71174;SDS011;58876;51.994;4.472;2022-10-12T04:39:59;2261.34;;;2261.34;;
71174;SDS011;58876;51.994;4.472;2022-10-12T04:42:24;2566.56;;;2566.56;;
71174;SDS011;58876;51.994;4.472;2022-10-12T04:44:50;2597.17;;;2597.17;;
71174;SDS011;58876;51.994;4.472;2022-10-12T04:47:15;1507.95;;;1507.95;;
71174;SDS011;58876;51.994;4.472;2022-10-12T04:49:43;1287.75;;;1287.75;;
71174;SDS011;58876;51.994;4.472;2022-10-12T04:52:08;1370.46;;;1370.46;;
71174;SDS011;58876;51.994;4.472;2022-10-12T04:54:34;1282.36;;;1282.36;;
71174;SDS011;58876;51.994;4.472;2022-10-12T04:56:59;615.03;;;615.03;;
71174;SDS011;58876;51.994;4.472;2022-10-12T04:59:24;1502.05;;;1502.05;;
71174;SDS011;58876;51.994;4.472;2022-10-12T05:01:50;1763.31;;;1763.31;;
71174;SDS011;58876;51.994;4.472;2022-10-12T05:04:15;1549.02;;;1549.02;;
71174;SDS011;58876;51.994;4.472;2022-10-12T05:06:41;1167.22;;;1167.22;;
71174;SDS011;58876;51.994;4.472;2022-10-12T05:09:06;1396.93;;;1396.93;;
71174;SDS011;58876;51.994;4.472;2022-10-12T05:11:32;1616.06;;;1616.06;;
71174;SDS011;58876;51.994;4.472;2022-10-12T05:13:58;1376.97;;;1376.97;;
71174;SDS011;58876;51.994;4.472;2022-10-12T05:16:23;1290.23;;;1290.23;;
71174;SDS011;58876;51.994;4.472;2022-10-12T05:18:50;1475.69;;;1475.69;;
71174;SDS011;58876;51.994;4.472;2022-10-12T05:21:15;2178.11;;;2178.11;;
71174;SDS011;58876;51.994;4.472;2022-10-12T05:23:40;1572.60;;;1572.60;;
71174;SDS011;58876;51.994;4.472;2022-10-12T05:26:06;1017.65;;;1017.65;;
71174;SDS011;58876;51.994;4.472;2022-10-12T05:28:31;719.82;;;719.82;;
71174;SDS011;58876;51.994;4.472;2022-10-12T05:30:57;1129.28;;;1129.28;;
71174;SDS011;58876;51.994;4.472;2022-10-12T05:33:23;1536.83;;;1536.83;;
71174;SDS011;58876;51.994;4.472;2022-10-12T05:35:49;1892.25;;;1892.25;;
71174;SDS011;58876;51.994;4.472;2022-10-12T05:38:14;2112.37;;;2112.37;;
71174;SDS011;58876;51.994;4.472;2022-10-12T05:40:40;2088.70;;;2088.70;;
71174;SDS011;58876;51.994;4.472;2022-10-12T05:43:05;1696.76;;;1696.76;;
71174;SDS011;58876;51.994;4.472;2022-10-12T05:45:30;1561.62;;;1561.62;;
71174;SDS011;58876;51.994;4.472;2022-10-12T05:47:56;2157.51;;;2157.51;;
71174;SDS011;58876;51.994;4.472;2022-10-12T05:50:21;2740.30;;;2740.30;;
71174;SDS011;58876;51.994;4.472;2022-10-12T05:52:47;2779.84;;;2779.84;;
71174;SDS011;58876;51.994;4.472;2022-10-12T05:55:12;2432.87;;;2432.87;;
71174;SDS011;58876;51.994;4.472;2022-10-12T05:57:38;2136.89;;;2136.89;;
71174;SDS011;58876;51.994;4.472;2022-10-12T06:00:04;2176.67;;;2176.67;;
71174;SDS011;58876;51.994;4.472;2022-10-12T06:02:32;1914.44;;;1914.44;;
71174;SDS011;58876;51.994;4.472;2022-10-12T06:04:59;1747.04;;;1747.04;;
71174;SDS011;58876;51.994;4.472;2022-10-12T06:07:25;1862.18;;;1862.18;;
71174;SDS011;58876;51.994;4.472;2022-10-12T06:09:51;2177.05;;;2177.05;;
71174;SDS011;58876;51.994;4.472;2022-10-12T06:12:16;2505.05;;;2505.05;;
71174;SDS011;58876;51.994;4.472;2022-10-12T06:14:42;3052.16;;;3052.16;;
71174;SDS011;58876;51.994;4.472;2022-10-12T06:17:07;2897.27;;;2897.27;;
71174;SDS011;58876;51.994;4.472;2022-10-12T06:19:34;2787.14;;;2782.44;;
71174;SDS011;58876;51.994;4.472;2022-10-12T06:22:00;2736.09;;;2736.09;;
71174;SDS011;58876;51.994;4.472;2022-10-12T06:24:26;2494.08;;;2494.08;;
71174;SDS011;58876;51.994;4.472;2022-10-12T06:26:51;2000.99;;;2000.99;;
71174;SDS011;58876;51.994;4.472;2022-10-12T06:29:17;2152.01;;;2152.01;;
71174;SDS011;58876;51.994;4.472;2022-10-12T06:31:42;2009.96;;;2009.96;;
71174;SDS011;58876;51.994;4.472;2022-10-12T06:34:08;1591.70;;;1591.70;;
71174;SDS011;58876;51.994;4.472;2022-10-12T06:36:34;1444.72;;;1444.72;;
71174;SDS011;58876;51.994;4.472;2022-10-12T06:39:00;1227.55;;;1227.55;;
71174;SDS011;58876;51.994;4.472;2022-10-12T06:41:25;1384.80;;;1384.80;;
71174;SDS011;58876;51.994;4.472;2022-10-12T06:43:51;1388.56;;;1388.56;;
71174;SDS011;58876;51.994;4.472;2022-10-12T06:46:16;1217.99;;;1217.99;;
71174;SDS011;58876;51.994;4.472;2022-10-12T06:48:41;1357.20;;;1357.20;;
71174;SDS011;58876;51.994;4.472;2022-10-12T06:51:07;554.68;;;554.68;;
71174;SDS011;58876;51.994;4.472;2022-10-12T06:53:32;326.35;;;326.35;;
71174;SDS011;58876;51.994;4.472;2022-10-12T06:55:59;419.66;;;419.66;;
71174;SDS011;58876;51.994;4.472;2022-10-12T06:58:29;523.87;;;523.87;;
71174;SDS011;58876;51.994;4.472;2022-10-12T07:00:54;571.04;;;571.04;;
71174;SDS011;58876;51.994;4.472;2022-10-12T07:03:20;466.60;;;466.60;;
71174;SDS011;58876;51.994;4.472;2022-10-12T07:05:45;504.95;;;504.95;;
71174;SDS011;58876;51.994;4.472;2022-10-12T07:08:11;516.35;;;516.35;;
71174;SDS011;58876;51.994;4.472;2022-10-12T07:10:37;474.00;;;474.00;;
71174;SDS011;58876;51.994;4.472;2022-10-12T07:13:02;354.43;;;354.43;;
71174;SDS011;58876;51.994;4.472;2022-10-12T07:15:28;294.03;;;294.03;;
71174;SDS011;58876;51.994;4.472;2022-10-12T07:17:53;283.85;;;283.85;;
71174;SDS011;58876;51.994;4.472;2022-10-12T07:20:18;280.71;;;280.71;;
71174;SDS011;58876;51.994;4.472;2022-10-12T07:22:44;259.73;;;259.73;;
71174;SDS011;58876;51.994;4.472;2022-10-12T07:25:09;261.71;;;261.71;;
71174;SDS011;58876;51.994;4.472;2022-10-12T07:27:35;276.81;;;276.81;;
71174;SDS011;58876;51.994;4.472;2022-10-12T07:30:00;194.76;;;194.76;;
71174;SDS011;58876;51.994;4.472;2022-10-12T07:32:26;190.09;;;190.09;;
71174;SDS011;58876;51.994;4.472;2022-10-12T07:34:51;198.68;;;198.68;;
71174;SDS011;58876;51.994;4.472;2022-10-12T07:37:17;463.05;;;463.05;;
71174;SDS011;58876;51.994;4.472;2022-10-12T07:39:42;438.99;;;438.99;;
71174;SDS011;58876;51.994;4.472;2022-10-12T07:42:08;486.37;;;486.37;;
71174;SDS011;58876;51.994;4.472;2022-10-12T07:44:34;409.44;;;409.44;;
71174;SDS011;58876;51.994;4.472;2022-10-12T07:46:59;512.07;;;512.07;;
71174;SDS011;58876;51.994;4.472;2022-10-12T07:49:26;316.51;;;316.51;;
71174;SDS011;58876;51.994;4.472;2022-10-12T07:51:51;429.08;;;429.08;;
71174;SDS011;58876;51.994;4.472;2022-10-12T07:54:17;470.57;;;470.57;;
71174;SDS011;58876;51.994;4.472;2022-10-12T07:56:42;406.99;;;406.99;;
71174;SDS011;58876;51.994;4.472;2022-10-12T07:59:08;278.07;;;278.07;;
71174;SDS011;58876;51.994;4.472;2022-10-12T08:01:33;768.51;;;768.51;;
71174;SDS011;58876;51.994;4.472;2022-10-12T08:03:59;642.07;;;642.07;;
71174;SDS011;58876;51.994;4.472;2022-10-12T08:06:27;617.61;;;617.61;;
71174;SDS011;58876;51.994;4.472;2022-10-12T08:08:56;1095.91;;;1095.91;;
71174;SDS011;58876;51.994;4.472;2022-10-12T08:11:22;199.46;;;199.46;;
71174;SDS011;58876;51.994;4.472;2022-10-12T08:13:48;200.41;;;200.41;;
71174;SDS011;58876;51.994;4.472;2022-10-12T08:16:14;353.45;;;353.45;;
71174;SDS011;58876;51.994;4.472;2022-10-12T08:18:42;620.56;;;620.56;;
71174;SDS011;58876;51.994;4.472;2022-10-12T08:21:09;478.23;;;478.23;;
71174;SDS011;58876;51.994;4.472;2022-10-12T08:23:36;451.47;;;451.47;;
71174;SDS011;58876;51.994;4.472;2022-10-12T08:26:02;327.42;;;327.42;;
71174;SDS011;58876;51.994;4.472;2022-10-12T08:28:28;344.66;;;344.66;;
71174;SDS011;58876;51.994;4.472;2022-10-12T08:30:55;330.21;;;330.21;;
71174;SDS011;58876;51.994;4.472;2022-10-12T08:33:20;338.27;;;338.27;;
71174;SDS011;58876;51.994;4.472;2022-10-12T08:35:46;266.80;;;266.80;;
71174;SDS011;58876;51.994;4.472;2022-10-12T08:38:12;363.70;;;363.70;;
71174;SDS011;58876;51.994;4.472;2022-10-12T08:46:13;372.03;;;372.03;;
71174;SDS011;58876;51.994;4.472;2022-10-12T08:48:46;414.18;;;414.18;;
71174;SDS011;58876;51.994;4.472;2022-10-12T08:51:26;418.74;;;418.74;;
71174;SDS011;58876;51.994;4.472;2022-10-12T08:53:56;614.92;;;614.92;;
71174;SDS011;58876;51.994;4.472;2022-10-12T08:56:45;500.79;;;500.79;;
71174;SDS011;58876;51.994;4.472;2022-10-12T08:59:12;439.06;;;439.06;;
71174;SDS011;58876;51.994;4.472;2022-10-12T09:07:19;352.52;;;352.52;;
71174;SDS011;58876;51.994;4.472;2022-10-12T09:15:38;188.04;;;188.04;;
71174;SDS011;58876;51.994;4.472;2022-10-12T09:20:53;310.15;;;310.15;;
71174;SDS011;58876;51.994;4.472;2022-10-12T09:23:31;251.93;;;251.93;;
71174;SDS011;58876;51.994;4.472;2022-10-12T09:26:49;249.49;;;249.49;;
71174;SDS011;58876;51.994;4.472;2022-10-12T09:29:01;279.53;;;279.53;;
71174;SDS011;58876;51.994;4.472;2022-10-12T09:31:42;198.93;;;198.93;;
71174;SDS011;58876;51.994;4.472;2022-10-12T09:34:19;190.75;;;190.75;;
71174;SDS011;58876;51.994;4.472;2022-10-12T09:36:44;84.32;;;84.32;;
71174;SDS011;58876;51.994;4.472;2022-10-12T09:39:12;72.91;;;72.91;;
71174;SDS011;58876;51.994;4.472;2022-10-12T09:41:46;59.38;;;59.38;;
71174;SDS011;58876;51.994;4.472;2022-10-12T09:44:25;58.43;;;58.43;;
71174;SDS011;58876;51.994;4.472;2022-10-12T09:47:01;531.37;;;531.37;;
71174;SDS011;58876;51.994;4.472;2022-10-12T09:49:49;178.23;;;178.23;;
71174;SDS011;58876;51.994;4.472;2022-10-12T09:52:24;58.00;;;58.00;;
71174;SDS011;58876;51.994;4.472;2022-10-12T09:54:54;350.64;;;350.64;;
71174;SDS011;58876;51.994;4.472;2022-10-12T09:57:25;1601.04;;;1601.04;;
71174;SDS011;58876;51.994;4.472;2022-10-12T10:02:48;350.94;;;350.94;;
71174;SDS011;58876;51.994;4.472;2022-10-12T10:05:22;612.17;;;612.17;;
71174;SDS011;58876;51.994;4.472;2022-10-12T10:10:43;24.69;;;24.69;;
71174;SDS011;58876;51.994;4.472;2022-10-12T10:13:13;21.59;;;21.59;;
71174;SDS011;58876;51.994;4.472;2022-10-12T10:15:40;27.73;;;27.73;;
71174;SDS011;58876;51.994;4.472;2022-10-12T10:18:26;50.48;;;50.48;;
71174;SDS011;58876;51.994;4.472;2022-10-12T10:20:59;25.73;;;25.73;;
71174;SDS011;58876;51.994;4.472;2022-10-12T10:26:04;173.60;;;173.60;;
71174;SDS011;58876;51.994;4.472;2022-10-12T10:28:32;484.12;;;484.12;;
71174;SDS011;58876;51.994;4.472;2022-10-12T10:31:01;860.00;;;860.00;;
71174;SDS011;58876;51.994;4.472;2022-10-12T10:33:34;846.83;;;846.83;;
71174;SDS011;58876;51.994;4.472;2022-10-12T10:38:44;29.71;;;29.71;;
71174;SDS011;58876;51.994;4.472;2022-10-12T10:41:46;82.95;;;82.95;;
71174;SDS011;58876;51.994;4.472;2022-10-12T10:44:19;19.14;;;19.14;;
71174;SDS011;58876;51.994;4.472;2022-10-12T10:46:49;19.13;;;19.13;;
71174;SDS011;58876;51.994;4.472;2022-10-12T10:49:25;21.96;;;21.96;;
71174;SDS011;58876;51.994;4.472;2022-10-12T10:52:32;20.93;;;20.93;;
71174;SDS011;58876;51.994;4.472;2022-10-12T10:57:35;15.29;;;15.29;;
71174;SDS011;58876;51.994;4.472;2022-10-12T11:00:10;17.20;;;17.20;;
71174;SDS011;58876;51.994;4.472;2022-10-12T11:02:43;23.28;;;23.28;;
71174;SDS011;58876;51.994;4.472;2022-10-12T11:05:26;25.15;;;25.15;;
71174;SDS011;58876;51.994;4.472;2022-10-12T11:07:57;29.73;;;29.73;;
71174;SDS011;58876;51.994;4.472;2022-10-12T11:10:49;32.27;;;32.27;;
71174;SDS011;58876;51.994;4.472;2022-10-12T11:18:46;23.66;;;23.66;;
71174;SDS011;58876;51.994;4.472;2022-10-12T11:21:22;31.01;;;31.01;;
71174;SDS011;58876;51.994;4.472;2022-10-12T11:24:10;26.62;;;26.62;;
71174;SDS011;58876;51.994;4.472;2022-10-12T11:26:47;91.98;;;91.98;;
71174;SDS011;58876;51.994;4.472;2022-10-12T11:29:17;29.67;;;29.67;;
71174;SDS011;58876;51.994;4.472;2022-10-12T11:31:49;24.02;;;24.02;;
71174;SDS011;58876;51.994;4.472;2022-10-12T11:34:22;28.80;;;28.80;;
71174;SDS011;58876;51.994;4.472;2022-10-12T11:36:50;27.20;;;27.20;;
71174;SDS011;58876;51.994;4.472;2022-10-12T11:39:26;26.46;;;26.46;;
71174;SDS011;58876;51.994;4.472;2022-10-12T11:42:01;25.12;;;25.12;;
71174;SDS011;58876;51.994;4.472;2022-10-12T11:52:34;19.57;;;19.57;;
71174;SDS011;58876;51.994;4.472;2022-10-12T11:55:14;23.67;;;23.67;;
71174;SDS011;58876;51.994;4.472;2022-10-12T11:58:05;21.71;;;21.71;;
71174;SDS011;58876;51.994;4.472;2022-10-12T12:00:49;19.83;;;19.83;;
71174;SDS011;58876;51.994;4.472;2022-10-12T12:11:31;20.38;;;20.38;;
71174;SDS011;58876;51.994;4.472;2022-10-12T12:16:45;19.91;;;19.91;;
71174;SDS011;58876;51.994;4.472;2022-10-12T12:24:52;21.44;;;21.44;;
71174;SDS011;58876;51.994;4.472;2022-10-12T12:27:39;19.81;;;19.81;;
71174;SDS011;58876;51.994;4.472;2022-10-12T12:32:45;21.51;;;21.51;;
71174;SDS011;58876;51.994;4.472;2022-10-12T12:38:07;24.57;;;24.57;;
71174;SDS011;58876;51.994;4.472;2022-10-12T12:40:55;35.82;;;35.82;;
71174;SDS011;58876;51.994;4.472;2022-10-12T12:45:56;244.47;;;244.47;;
71174;SDS011;58876;51.994;4.472;2022-10-12T12:51:22;40.47;;;40.47;;
71174;SDS011;58876;51.994;4.472;2022-10-12T12:54:00;31.42;;;31.42;;
71174;SDS011;58876;51.994;4.472;2022-10-12T12:56:40;26.76;;;26.76;;
71174;SDS011;58876;51.994;4.472;2022-10-12T13:02:15;28.13;;;28.13;;
71174;SDS011;58876;51.994;4.472;2022-10-12T13:10:52;67.29;;;67.29;;
71174;SDS011;58876;51.994;4.472;2022-10-12T13:20:10;22.81;;;22.81;;
71174;SDS011;58876;51.994;4.472;2022-10-12T13:22:43;31.08;;;31.08;;
71174;SDS011;58876;51.994;4.472;2022-10-12T13:25:20;41.73;;;41.73;;
71174;SDS011;58876;51.994;4.472;2022-10-12T13:28:13;160.64;;;160.64;;
71174;SDS011;58876;51.994;4.472;2022-10-12T13:36:07;21.61;;;21.61;;
71174;SDS011;58876;51.994;4.472;2022-10-12T13:38:41;27.76;;;27.76;;
71174;SDS011;58876;51.994;4.472;2022-10-12T13:41:15;25.97;;;25.97;;
71174;SDS011;58876;51.994;4.472;2022-10-12T13:46:13;25.24;;;25.24;;
71174;SDS011;58876;51.994;4.472;2022-10-12T13:51:42;30.39;;;30.39;;
71174;SDS011;58876;51.994;4.472;2022-10-12T13:54:20;71.89;;;71.89;;
71174;SDS011;58876;51.994;4.472;2022-10-12T13:56:51;2951.47;;;2951.47;;
71174;SDS011;58876;51.994;4.472;2022-10-12T13:59:26;818.56;;;818.56;;
71174;SDS011;58876;51.994;4.472;2022-10-12T14:01:57;73.68;;;73.68;;
71174;SDS011;58876;51.994;4.472;2022-10-12T14:04:32;71.43;;;71.43;;
71174;SDS011;58876;51.994;4.472;2022-10-12T14:07:00;40.60;;;40.60;;
71174;SDS011;58876;51.994;4.472;2022-10-12T14:09:35;56.08;;;56.08;;
71174;SDS011;58876;51.994;4.472;2022-10-12T14:12:08;75.69;;;75.69;;
71174;SDS011;58876;51.994;4.472;2022-10-12T14:14:36;43.72;;;43.72;;
71174;SDS011;58876;51.994;4.472;2022-10-12T14:17:04;28.13;;;28.13;;
71174;SDS011;58876;51.994;4.472;2022-10-12T14:22:07;18.72;;;18.72;;
71174;SDS011;58876;51.994;4.472;2022-10-12T14:24:33;22.68;;;22.68;;
71174;SDS011;58876;51.994;4.472;2022-10-12T14:27:01;26.12;;;26.12;;
71174;SDS011;58876;51.994;4.472;2022-10-12T14:29:34;20.95;;;20.95;;
71174;SDS011;58876;51.994;4.472;2022-10-12T14:34:46;30.41;;;30.41;;
71174;SDS011;58876;51.994;4.472;2022-10-12T14:39:38;24.13;;;24.13;;
71174;SDS011;58876;51.994;4.472;2022-10-12T14:42:22;20.45;;;20.45;;
71174;SDS011;58876;51.994;4.472;2022-10-12T14:44:56;22.44;;;22.44;;
71174;SDS011;58876;51.994;4.472;2022-10-12T14:47:23;23.46;;;23.46;;
71174;SDS011;58876;51.994;4.472;2022-10-12T14:49:55;29.99;;;29.99;;
71174;SDS011;58876;51.994;4.472;2022-10-12T14:52:28;25.11;;;25.11;;
71174;SDS011;58876;51.994;4.472;2022-10-12T14:55:09;27.04;;;27.04;;
71174;SDS011;58876;51.994;4.472;2022-10-12T14:57:39;420.47;;;420.47;;
71174;SDS011;58876;51.994;4.472;2022-10-12T15:00:05;1081.01;;;1081.01;;
71174;SDS011;58876;51.994;4.472;2022-10-12T15:02:31;1489.33;;;1489.33;;
71174;SDS011;58876;51.994;4.472;2022-10-12T15:04:57;460.87;;;460.87;;
71174;SDS011;58876;51.994;4.472;2022-10-12T15:07:24;102.02;;;102.02;;
71174;SDS011;58876;51.994;4.472;2022-10-12T15:09:54;246.88;;;246.88;;
71174;SDS011;58876;51.994;4.472;2022-10-12T15:12:21;307.12;;;307.12;;
71174;SDS011;58876;51.994;4.472;2022-10-12T15:14:49;306.11;;;306.11;;
71174;SDS011;58876;51.994;4.472;2022-10-12T15:17:17;246.62;;;246.62;;
71174;SDS011;58876;51.994;4.472;2022-10-12T15:19:44;256.85;;;256.85;;
71174;SDS011;58876;51.994;4.472;2022-10-12T15:22:13;297.97;;;297.97;;
71174;SDS011;58876;51.994;4.472;2022-10-12T15:24:47;352.28;;;352.28;;
71174;SDS011;58876;51.994;4.472;2022-10-12T15:27:13;301.04;;;301.04;;
71174;SDS011;58876;51.994;4.472;2022-10-12T15:29:39;257.85;;;257.85;;
71174;SDS011;58876;51.994;4.472;2022-10-12T15:32:05;377.55;;;377.55;;
71174;SDS011;58876;51.994;4.472;2022-10-12T15:34:33;388.12;;;388.12;;
71174;SDS011;58876;51.994;4.472;2022-10-12T15:36:58;329.67;;;329.67;;
71174;SDS011;58876;51.994;4.472;2022-10-12T15:39:24;255.34;;;255.34;;
71174;SDS011;58876;51.994;4.472;2022-10-12T15:41:49;1250.17;;;1250.17;;
71174;SDS011;58876;51.994;4.472;2022-10-12T15:44:15;258.98;;;258.98;;
71174;SDS011;58876;51.994;4.472;2022-10-12T15:46:41;279.47;;;279.47;;
71174;SDS011;58876;51.994;4.472;2022-10-12T15:49:08;364.48;;;364.48;;
71174;SDS011;58876;51.994;4.472;2022-10-12T15:51:41;418.49;;;418.49;;
71174;SDS011;58876;51.994;4.472;2022-10-12T15:54:12;239.09;;;239.09;;
71174;SDS011;58876;51.994;4.472;2022-10-12T15:56:37;233.72;;;233.72;;
71174;SDS011;58876;51.994;4.472;2022-10-12T15:59:03;227.14;;;227.14;;
71174;SDS011;58876;51.994;4.472;2022-10-12T16:01:29;241.83;;;241.83;;
71174;SDS011;58876;51.994;4.472;2022-10-12T16:03:55;223.24;;;223.24;;
71174;SDS011;58876;51.994;4.472;2022-10-12T16:06:20;236.93;;;236.93;;
71174;SDS011;58876;51.994;4.472;2022-10-12T16:08:47;244.76;;;244.76;;
71174;SDS011;58876;51.994;4.472;2022-10-12T16:11:13;232.74;;;232.74;;
71174;SDS011;58876;51.994;4.472;2022-10-12T16:13:41;280.99;;;280.99;;
71174;SDS011;58876;51.994;4.472;2022-10-12T16:16:09;342.43;;;342.43;;
71174;SDS011;58876;51.994;4.472;2022-10-12T16:18:36;568.60;;;568.60;;